Myrtle Point, Oregon
Current Conditions -  °F | °C
As of 3:55 AM on Thursday 23 Oct 2014 (Local Time) from KOTH Reporting Station
Overcast Overcast  
Wind Chill: 61°   Ceiling: 1400
Heat Index: 61°   Visibility: 10mi
Dew Point: 61°   Wind: 8mph
Humidity: 100%   Direction: 180°S
Pressure: 29.81"   Gusts: NA
Location:  43.06°N, 124.14°W
Report Text: KOTH 231055Z 18007KT 10SM BKN014 OVC021 16/16 A2981 RMK AO1
Loading
Personal Weather Stations






























Interactive Weather Map
Tropical Storm Tracking
New forecast layout! Learn more

10-Day Weather Forecast

Advertisements
Track Severe Weather on mobile